• Join FlightAware (Why Join?)
  • Login
  • US Flag 
05:53AM EDT


 

Airport Tracker/Info


-or-


 

Live Flight TrackerFlight Track Log ✈ UAL4696 ✈ 08-May-2013 ✈ KDTW - KEWR

Flight Track Log - Related Links

Times and Time Zones

All times are in EDT time to prevent confusion due to time zone crossing. See the UAL4696 flight status page for this flight to view local times or setup timezone preferences in your user account.

Time Position Orientation Groundspeed Altitude Reporting Facility
EDT Latitude Longitude Course Direction KTS MPH feet Rate Location/Type
06:15AM 42.2314 -83.3342 34° Northeast 156 180 1,300  Level Cleveland Center
06:16AM 42.2547 -83.3128 34° Northeast 173 199 2,700 2,220 Climbing Cleveland Center
06:16AM 42.2761 -83.2942 33° Northeast 195 224 3,800 2,280 Climbing Cleveland Center
06:17AM 42.2933 -83.2722 43° Northeast 202 232 4,800 1,560 Climbing Cleveland Center
06:17AM 42.2986 -83.2164 83° East 243 280 5,400 1,740 Climbing Cleveland Center
06:18AM 42.2992 -83.1939 88° East 247 284 6,400 2,700 Climbing Cleveland Center
06:18AM 42.2922 -83.1319 99° East 250 288 8,100 2,220 Climbing Cleveland Center
06:19AM 42.2908 -83.1011 93° East 259 298 8,700 2,100 Climbing Cleveland Center
06:19AM 42.2819 -83.0306 100° East 273 314 10,200 1,440 Climbing Cleveland Center
06:20AM 42.2717 -82.9206 97° East 293 337 11,200 1,200 Climbing Cleveland Center
06:21AM 42.2597 -82.7967 97° East 311 358 12,700 1,560 Climbing Cleveland Center
06:22AM 42.2453 -82.6728 99° East 323 372 14,400 1,380 Climbing Cleveland Center
06:23AM 42.2331 -82.5433 97° East 335 386 15,500 1,020 Climbing Cleveland Center
06:24AM 42.2206 -82.4083 97° East 345 397 16,500 1,140 Climbing Cleveland Center
06:25AM 42.2103 -82.2708 96° East 357 411 17,800 960 Climbing Cleveland Center
06:26AM 42.2033 -82.1583 95° East 363 418 18,500 900 Climbing Cleveland Center
06:27AM 42.1908 -81.9983 96° East 381 438 19,700 1,140 Climbing Cleveland Center
06:28AM 42.1822 -81.8553 95° East 388 447 20,800 1,080 Climbing Cleveland Center
06:29AM 42.1711 -81.7067 96° East 396 456 21,900 1,140 Climbing Cleveland Center
06:30AM 42.1622 -81.5581 95° East 396 456 23,100 1,200 Climbing Cleveland Center
06:31AM 42.1489 -81.3981 96° East 391 450 24,400 1,260 Climbing Cleveland Center
06:32AM 42.1353 -81.2553 97° East 385 443 25,700 1,260 Climbing Cleveland Center
06:33AM 42.1256 -81.1122 95° East 385 443 27,000 1,200 Climbing Cleveland Center
06:34AM 42.0842 -80.9889 114° Southeast 364 419 28,200 960 Climbing Cleveland Center
06:35AM 42.0117 -80.8850 133° Southeast 364 419 29,000 360 Climbing Cleveland Center
06:36AM 41.9369 -80.7786 133° Southeast 382 440 29,000  Level Cleveland Center
06:37AM 41.8578 -80.6667 133° Southeast 408 470 29,000  Level Cleveland Center
06:38AM 41.7994 -80.5553 125° Southeast 408 470 29,000  Level Cleveland Center
06:39AM 41.7828 -80.4050 98° East 399 459 29,000  Level Cleveland Center
06:40AM 41.7678 -80.2658 98° East 394 453 29,000  Level Cleveland Center
06:41AM 41.7547 -80.1267 97° East 379 436 29,000  Level Cleveland Center
06:42AM 41.7397 -79.9906 98° East 374 430 29,000  Level Cleveland Center
06:43AM 41.7242 -79.8403 98° East 369 425 29,000  Level Cleveland Center
06:44AM 41.7106 -79.7042 98° East 369 425 29,000  Level Cleveland Center
06:45AM 41.6969 -79.5708 98° East 369 425 29,000  Level Cleveland Center
06:46AM 41.6811 -79.4350 99° East 369 425 29,000  Level Cleveland Center
06:47AM 41.6672 -79.2906 97° East 369 425 29,000  Level Cleveland Center
06:48AM 41.6508 -79.1464 99° East 382 440 29,000  Level Cleveland Center
06:49AM 41.6344 -79.0022 99° East 387 445 29,000  Level Cleveland Center
06:50AM 41.6178 -78.8556 99° East 387 445 29,000  Level Cleveland Center
06:51AM 41.6008 -78.7117 99° East 387 445 29,000  Level Cleveland Center
06:52AM 41.5836 -78.5650 99° East 387 445 29,000  Level Cleveland Center
06:53AM 41.5664 -78.4183 99° East 387 445 29,000  Level Cleveland Center
06:54AM 41.5492 -78.2747 99° East 387 445 29,000  Level Cleveland Center
06:55AM 41.5428 -78.2050 97° East 385 443 29,000  Level New York Center
06:56AM 41.5247 -78.0617 100° East 385 443 29,000  Level New York Center
06:57AM 41.5044 -77.9153 100° East 390 449 29,000  Level New York Center
06:58AM 41.4856 -77.7747 100° East 390 449 29,000  Level New York Center
06:59AM 41.4647 -77.6342 101° East 390 449 29,000  Level New York Center
07:00AM 41.4436 -77.4908 101° East 395 455 29,000  Level New York Center
07:01AM 41.4222 -77.3531 102° East 390 449 29,000  Level New York Center
07:02AM 41.4011 -77.2072 101° East 390 449 29,000  Level New York Center
07:03AM 41.3811 -77.0725 101° East 385 443 29,000  Level New York Center
07:04AM 41.3597 -76.9294 101° East 385 443 29,000 -360 Level New York Center
07:05AM 41.3397 -76.7894 101° East 385 443 28,400 -1,320 Descending New York Center
07:06AM 41.3064 -76.6622 109° East 375 432 26,400 -1,920 Descending New York Center
07:07AM 41.2692 -76.5292 110° East 375 432 24,500 -1,980 Descending New York Center
07:08AM 41.2339 -76.3964 109° East 375 432 22,500 -2,100 Descending New York Center
07:09AM 41.1983 -76.2694 110° East 375 432 20,400 -2,100 Descending New York Center
07:10AM 41.1686 -76.1428 107° East 370 426 18,300 -1,980 Descending New York Center
07:11AM 41.1383 -76.0303 110° East 365 420 16,500 -1,800 Descending New York Center
07:12AM 41.1042 -75.9092 110° East 350 403 14,700 -1,620 Descending New York Center
07:13AM 41.0678 -75.7797 110° East 344 396 13,300 -900 Descending New York Center
07:14AM 41.0356 -75.6564 109° East 344 396 13,000 -180 Descending New York Center
07:15AM 41.0008 -75.5358 111° Southeast 344 396 13,000  Level New York Center
07:16AM 40.9700 -75.4236 110° East 330 380 13,000 -660 Level New York Center
07:17AM 40.9406 -75.3256 112° Southeast 299 344 11,700 -1,500 Descending New York Center
07:18AM 40.9150 -75.2278 109° East 283 326 10,100 -1,620 Descending New York Center
07:19AM 40.8908 -75.1464 111° Southeast 272 313 8,600 -1,440 Descending New York Center
07:20AM 40.8669 -75.0597 110° East 255 293 7,300 -840 Descending New York Center
07:21AM 40.8411 -74.9731 111° Southeast 239 275 7,000 -180 Descending New York Center
07:22AM 40.8253 -74.8872 104° East 239 275 7,000  Level New York Center
07:23AM 40.8181 -74.7908 96° East 239 275 7,000  Level New York Center
07:24AM 40.7981 -74.7047 107° East 239 275 7,000 -300 Level New York Center
07:25AM 40.7822 -74.6189 104° East 244 281 6,500 -660 Descending New York Center
07:25AM 40.7667 -74.5833 120° Southeast 245 282 6,100 -480 Descending New York TRACON
07:26AM 40.7167 -74.5500 153° Southeast 229 264 5,900 -420 Descending New York TRACON
07:27AM 40.6500 -74.5000 150° Southeast 238 274 5,400 -480 Descending New York TRACON
07:28AM 40.6000 -74.4500 143° Southeast 229 264 5,000 -780 Descending New York TRACON
07:29AM 40.5500 -74.4000 143° Southeast 217 250 4,000 -540 Descending New York TRACON
07:30AM 40.5167 -74.3833 159° South 181 208 4,000 -420 Level New York TRACON
07:31AM 40.5000 -74.3167 108° East 186 214 3,200 -900 Descending New York TRACON
07:32AM 40.5333 -74.2667 49° Northeast 185 213 2,200 -600 Descending New York TRACON
07:33AM 40.5833 -74.2333 27° Northeast 176 203 2,000 -240 Descending New York TRACON